Time;durP1;ratioP1;P1;durP2;ratioP2;P2;SDS_P1;SDS_P2;PMS_P1;PMS_P2;Temp;Humidity;BMP_temperature;BMP_pressure;BME280_temperature;BME280_humidity;BME280_pressure;Samples;Min_cycle;Max_cycle;Signal;HPM_P1;HPM_P2
2022/07/05 00:01:31;;;;;;;;;;;15.60;99.90;;;;;;5017182;28;20056;-53
2022/07/05 00:03:58;;;;;;;3.17;1.50;;;15.60;99.90;;;;;;5015893;28;19979;-53
2022/07/05 00:06:25;;;;;;;;;;;15.60;99.90;;;;;;5017998;28;20451;-55
2022/07/05 00:08:51;;;;;;;2.90;1.50;;;15.60;99.90;;;;;;5016420;28;20438;-55
2022/07/05 00:11:18;;;;;;;;;;;15.60;99.90;;;;;;5016882;28;20099;-55
2022/07/05 00:13:45;;;;;;;3.45;1.75;;;15.60;99.90;;;;;;5016246;28;20535;-57
2022/07/05 00:16:11;;;;;;;;;;;15.70;99.90;;;;;;5016754;28;20131;-56
2022/07/05 00:18:38;;;;;;;1.38;1.27;;;15.70;99.90;;;;;;5016025;28;20035;-57
2022/07/05 00:21:05;;;;;;;3.33;1.85;;;15.70;99.90;;;;;;5015723;28;20061;-55
2022/07/05 00:23:32;;;;;;;;;;;15.60;99.90;;;;;;5015347;28;20710;-50
2022/07/05 00:25:59;;;;;;;8.13;2.10;;;15.60;99.90;;;;;;5016042;28;19925;-51
2022/07/05 00:28:25;;;;;;;;;;;15.60;99.90;;;;;;5016336;28;21024;-54
2022/07/05 00:30:52;;;;;;;10.55;1.98;;;15.60;99.90;;;;;;5010202;28;20670;-54
2022/07/05 00:33:19;;;;;;;4.88;2.00;;;15.60;99.90;;;;;;5015412;28;20061;-54
2022/07/05 00:35:46;;;;;;;4.38;1.58;;;15.60;99.90;;;;;;5014781;28;20033;-56
2022/07/05 00:38:13;;;;;;;;;;;15.50;99.90;;;;;;5015857;28;20613;-51
2022/07/05 00:40:41;;;;;;;7.90;1.50;;;15.60;99.90;;;;;;5016095;28;20506;-56
2022/07/05 00:43:08;;;;;;;11.35;2.05;;;15.50;99.90;;;;;;5015195;28;20056;-54
2022/07/05 00:45:35;;;;;;;;;;;15.60;99.90;;;;;;5016950;28;20107;-54
2022/07/05 00:48:02;;;;;;;2.08;1.55;;;15.60;99.90;;;;;;5015042;28;19932;-55
2022/07/05 00:50:29;;;;;;;;;;;15.60;99.90;;;;;;5016087;28;20096;-55
2022/07/05 00:52:56;;;;;;;3.63;1.50;;;15.60;99.90;;;;;;5015871;28;20377;-53
2022/07/05 00:55:23;;;;;;;3.03;1.75;;;15.60;99.90;;;;;;5014895;28;20448;-55
2022/07/05 00:57:50;;;;;;;2.78;1.60;;;15.60;99.90;;;;;;5016386;28;20041;-50
2022/07/05 01:00:18;;;;;;;2.85;1.90;;;15.60;99.90;;;;;;5015315;28;20099;-54
2022/07/05 01:02:45;;;;;;;4.45;1.38;;;15.60;99.90;;;;;;5014597;28;20045;-54
2022/07/05 01:05:12;;;;;;;4.63;1.50;;;15.70;99.90;;;;;;5015432;28;20089;-55
2022/07/05 01:07:40;;;;;;;4.18;1.85;;;15.70;99.90;;;;;;5014151;28;20504;-57
2022/07/05 01:10:07;;;;;;;4.50;1.55;;;15.70;99.90;;;;;;5015714;28;20133;-54
2022/07/05 01:12:34;;;;;;;2.85;1.70;;;15.70;99.90;;;;;;5013416;28;20041;-52
2022/07/05 01:15:01;;;;;;;;;;;15.70;99.90;;;;;;5015894;28;20049;-55
2022/07/05 01:17:29;;;;;;;1.73;1.60;;;15.70;99.90;;;;;;5014875;28;19932;-54
2022/07/05 01:19:56;;;;;;;2.45;1.60;;;15.70;99.90;;;;;;5014971;28;20045;-55
2022/07/05 01:22:26;;;;;;;4.15;1.92;;;15.70;99.90;;;;;;5014605;28;20432;-55
2022/07/05 01:24:53;;;;;;;3.17;1.90;;;15.70;99.90;;;;;;5015156;28;20056;-54
2022/07/05 01:27:20;;;;;;;3.90;1.55;;;15.70;99.90;;;;;;5014217;28;20045;-54
2022/07/05 01:29:47;;;;;;;1.38;1.27;;;15.70;99.90;;;;;;5014515;28;20114;-54
2022/07/05 01:32:14;;;;;;;1.90;1.50;;;15.70;99.90;;;;;;5011539;28;20056;-56
2022/07/05 01:34:42;;;;;;;3.00;1.70;;;15.80;99.90;;;;;;5014771;28;20057;-55
2022/07/05 01:37:10;;;;;;;2.20;1.65;;;15.80;99.90;;;;;;5015408;28;20117;-56
2022/07/05 01:39:38;;;;;;;3.60;1.55;;;15.80;99.90;;;;;;5012960;28;20049;-53
2022/07/05 01:42:06;;;;;;;2.30;1.27;;;15.80;99.90;;;;;;5014658;28;20099;-53
2022/07/05 01:44:33;;;;;;;5.18;1.45;;;15.70;99.90;;;;;;5014373;28;20065;-55
2022/07/05 01:47:05;;;;;;;1.38;1.27;;;15.80;99.90;;;;;;5015250;28;20045;-56
2022/07/05 01:49:36;;;;;;;3.08;1.42;;;15.80;99.90;;;;;;5014265;28;20045;-57
2022/07/05 01:52:09;;;;;;;4.80;1.92;;;15.80;99.90;;;;;;5014745;28;20072;-54
2022/07/05 01:54:38;;;;;;;5.22;1.90;;;15.80;99.90;;;;;;5012764;28;20140;-55
2022/07/05 01:57:06;;;;;;;6.63;2.40;;;15.80;99.90;;;;;;5014972;28;20095;-57
2022/07/05 01:59:34;;;;;;;2.63;1.88;;;15.70;99.90;;;;;;5015266;28;20078;-52
2022/07/05 02:02:02;;;;;;;4.25;2.05;;;15.70;99.90;;;;;;5014429;28;20932;-54
2022/07/05 02:04:29;;;;;;;2.15;1.95;;;15.70;99.90;;;;;;5014674;28;20871;-54
2022/07/05 02:06:57;;;;;;;7.75;2.10;;;15.70;99.90;;;;;;5012453;28;20582;-53
2022/07/05 02:09:24;;;;;;;5.50;2.38;;;15.60;99.90;;;;;;5012950;28;20052;-54
2022/07/05 02:11:51;;;;;;;5.88;2.28;;;15.70;99.90;;;;;;5012568;28;20129;-57
2022/07/05 02:14:19;;;;;;;3.58;2.00;;;15.70;99.90;;;;;;5012517;28;20695;-54
2022/07/05 02:16:46;;;;;;;3.67;1.85;;;15.70;99.90;;;;;;5013123;28;20160;-53
2022/07/05 02:19:14;;;;;;;2.17;1.88;;;15.70;99.90;;;;;;5012851;28;20057;-54
2022/07/05 02:21:43;;;;;;;5.07;1.90;;;15.70;99.90;;;;;;5012825;28;20059;-56
2022/07/05 02:24:14;;;;;;;2.65;1.90;;;15.70;99.90;;;;;;4996659;28;20136;-53
2022/07/05 02:26:50;;;;;;;8.40;2.47;;;15.70;99.90;;;;;;5013170;28;20046;-53
2022/07/05 02:29:17;;;;;;;2.20;1.90;;;15.70;99.90;;;;;;5011951;28;20045;-54
2022/07/05 02:31:45;;;;;;;4.03;2.53;;;15.70;99.90;;;;;;5011934;28;20470;-54
2022/07/05 02:34:12;;;;;;;1.70;1.58;;;15.70;99.90;;;;;;5012593;28;20635;-54
2022/07/05 02:36:40;;;;;;;5.57;2.53;;;15.70;99.90;;;;;;5014681;28;20076;-57
2022/07/05 02:39:10;;;;;;;6.28;2.17;;;15.70;99.90;;;;;;5011960;28;20046;-51
2022/07/05 02:41:37;;;;;;;3.20;1.95;;;15.70;99.90;;;;;;5013105;28;20053;-55
2022/07/05 02:44:04;;;;;;;3.75;1.80;;;15.70;99.90;;;;;;5012298;28;20053;-53
2022/07/05 02:46:31;;;;;;;3.42;2.10;;;15.70;99.90;;;;;;5016712;28;20539;-53
2022/07/05 02:49:01;;;;;;;3.63;2.67;;;15.70;99.90;;;;;;5016333;28;20048;-55
2022/07/05 02:51:31;;;;;;;4.20;2.78;;;15.70;99.90;;;;;;5016070;28;20056;-52
2022/07/05 02:53:59;;;;;;;4.03;2.30;;;15.70;99.90;;;;;;5015949;28;20045;-54
2022/07/05 02:56:29;;;;;;;4.93;2.70;;;15.70;99.90;;;;;;5016215;28;20041;-52
2022/07/05 02:58:57;;;;;;;2.95;2.10;;;15.70;99.90;;;;;;5015952;28;20873;-55
2022/07/05 03:01:25;;;;;;;2.33;2.00;;;15.70;99.90;;;;;;5015839;28;20144;-56
2022/07/05 03:03:59;;;;;;;1.70;1.60;;;15.70;99.90;;;;;;5015161;28;20079;-53
2022/07/05 03:06:27;;;;;;;2.08;1.92;;;15.70;99.90;;;;;;5016133;28;20714;-56
2022/07/05 03:08:55;;;;;;;12.20;3.28;;;15.70;99.90;;;;;;5016318;28;20041;-54
2022/07/05 03:11:22;;;;;;;10.75;3.10;;;15.70;99.90;;;;;;5018427;28;20044;-55
2022/07/05 03:13:49;;;;;;;5.93;3.03;;;15.70;99.90;;;;;;5016899;28;20052;-52
2022/07/05 03:16:16;;;;;;;6.53;2.72;;;15.70;99.90;;;;;;5015925;28;20824;-56
2022/07/05 03:18:44;;;;;;;3.53;2.20;;;15.70;99.90;;;;;;5016454;28;20041;-55
2022/07/05 03:21:11;;;;;;;2.25;2.05;;;15.70;99.90;;;;;;5016147;28;20057;-56
2022/07/05 03:23:38;;;;;;;7.25;2.67;;;15.70;99.90;;;;;;5015856;28;20961;-56
2022/07/05 03:26:05;;;;;;;2.00;1.90;;;15.80;99.90;;;;;;5017017;28;20045;-54
2022/07/05 03:28:32;;;;;;;5.22;2.50;;;15.80;99.90;;;;;;5015414;28;20037;-56
2022/07/05 03:31:00;;;;;;;4.07;2.15;;;15.80;99.90;;;;;;5016128;28;20049;-51
2022/07/05 03:33:31;;;;;;;5.75;3.50;;;15.80;99.90;;;;;;5012409;28;20050;-55
2022/07/05 03:36:00;;;;;;;3.40;2.50;;;15.80;99.90;;;;;;5015281;28;20041;-54
2022/07/05 03:38:28;;;;;;;3.10;2.22;;;15.80;99.90;;;;;;5017375;28;20037;-54
2022/07/05 03:40:55;;;;;;;2.28;2.08;;;15.90;99.90;;;;;;5015166;28;20731;-53
2022/07/05 03:43:25;;;;;;;4.88;2.83;;;15.90;99.90;;;;;;5015234;28;20050;-57
2022/07/05 03:45:54;;;;;;;7.75;3.97;;;15.90;99.90;;;;;;5014931;28;20114;-54
2022/07/05 03:48:22;;;;;;;8.00;4.40;;;15.90;99.90;;;;;;5016687;28;20136;-54
2022/07/05 03:51:08;;;;;;;8.13;4.40;;;15.90;99.90;;;;;;5014965;28;20796;-54
2022/07/05 03:53:36;;;;;;;10.00;5.15;;;15.90;99.90;;;;;;5015264;28;20046;-56
2022/07/05 03:56:04;;;;;;;6.10;4.18;;;15.90;99.90;;;;;;5014149;28;20049;-54
2022/07/05 03:58:31;;;;;;;6.78;4.18;;;15.90;99.90;;;;;;5015022;28;20049;-54
2022/07/05 04:00:59;;;;;;;9.90;4.97;;;15.90;99.90;;;;;;5015584;28;20047;-55
2022/07/05 04:03:27;;;;;;;7.93;4.65;;;15.90;99.90;;;;;;4998396;28;20049;-51
2022/07/05 04:05:56;;;;;;;11.68;5.18;;;15.90;99.90;;;;;;5015098;28;20079;-54
2022/07/05 04:08:22;;;;;;;;;;;15.90;99.90;;;;;;5016381;28;20049;-56
2022/07/05 04:10:49;;;;;;;5.17;3.73;;;15.90;99.90;;;;;;5015214;28;19921;-52
2022/07/05 04:13:19;;;;;;;6.75;4.53;;;15.90;99.90;;;;;;5014038;28;20045;-51
2022/07/05 04:15:48;;;;;;;6.13;4.75;;;15.90;99.90;;;;;;5014922;28;20057;-54
2022/07/05 04:18:15;;;;;;;6.22;4.63;;;15.90;99.90;;;;;;5014187;28;20048;-53
2022/07/05 04:20:43;;;;;;;8.20;4.88;;;15.90;99.90;;;;;;5014605;28;20618;-52
2022/07/05 04:23:11;;;;;;;8.68;5.00;;;15.90;99.90;;;;;;5014649;28;20045;-57
2022/07/05 04:25:38;;;;;;;7.82;5.63;;;15.90;99.90;;;;;;5014760;28;20045;-54
2022/07/05 04:28:13;;;;;;;7.22;4.63;;;15.90;99.90;;;;;;5014880;28;20991;-54
2022/07/05 04:30:41;;;;;;;5.57;4.40;;;15.90;99.90;;;;;;5014237;28;20084;-57
2022/07/05 04:33:10;;;;;;;8.65;4.88;;;15.90;99.90;;;;;;5012107;28;20034;-52
2022/07/05 04:35:38;;;;;;;5.93;4.82;;;15.90;99.90;;;;;;5013346;28;20045;-54
2022/07/05 04:38:05;;;;;;;5.03;4.28;;;15.90;99.90;;;;;;5014975;28;20045;-54
2022/07/05 04:40:35;;;;;;;6.20;5.20;;;15.80;99.90;;;;;;5013986;28;20427;-55
2022/07/05 04:43:02;;;;;;;7.40;5.40;;;15.80;99.90;;;;;;4994683;28;20052;-54
2022/07/05 04:45:29;;;;;;;6.22;4.68;;;15.80;99.90;;;;;;4994679;28;20042;-53
2022/07/05 04:47:57;;;;;;;6.22;4.30;;;15.80;99.90;;;;;;5002399;28;20741;-54
2022/07/05 04:50:25;;;;;;;8.90;6.28;;;15.80;99.90;;;;;;5013714;28;20053;-56
2022/07/05 04:52:52;;;;;;;12.10;7.43;;;15.80;99.90;;;;;;5013792;28;20119;-54
2022/07/05 04:55:19;;;;;;;6.80;5.82;;;15.80;99.90;;;;;;5014067;28;20045;-54
2022/07/05 04:57:46;;;;;;;10.75;6.75;;;15.80;99.90;;;;;;5015069;28;20046;-48
2022/07/05 05:00:13;;;;;;;;;;;15.80;99.90;;;;;;5016001;28;20053;-52
2022/07/05 05:02:41;;;;;;;8.02;6.72;;;15.80;99.90;;;;;;5013322;28;20016;-50
2022/07/05 05:05:08;;;;;;;7.40;5.22;;;15.80;99.90;;;;;;5015648;28;20037;-52
2022/07/05 05:07:37;;;;;;;7.15;4.93;;;15.80;99.90;;;;;;5014984;28;20053;-50
2022/07/05 05:10:05;;;;;;;5.65;4.55;;;15.80;99.90;;;;;;5015464;28;20057;-50
2022/07/05 05:12:32;;;;;;;5.30;4.80;;;15.80;99.90;;;;;;5013882;28;20072;-55
2022/07/05 05:14:59;;;;;;;6.97;5.13;;;15.80;99.90;;;;;;4997754;28;20041;-55
2022/07/05 05:17:37;;;;;;;5.45;4.65;;;15.80;99.90;;;;;;5014877;28;20044;-53
2022/07/05 05:20:12;;;;;;;7.95;5.90;;;15.80;99.90;;;;;;5014859;28;20058;-56
2022/07/05 05:22:40;;;;;;;10.88;6.88;;;15.80;99.90;;;;;;4997610;28;20599;-52
2022/07/05 05:25:08;;;;;;;8.02;5.35;;;15.80;99.90;;;;;;5014732;28;20048;-55
2022/07/05 05:27:34;;;;;;;5.22;4.72;;;15.80;99.90;;;;;;5013500;28;20049;-56
2022/07/05 05:30:02;;;;;;;9.10;5.80;;;15.70;99.90;;;;;;5013308;28;20072;-52
2022/07/05 05:32:29;;;;;;;8.65;6.72;;;15.80;99.90;;;;;;5013951;28;20606;-54
2022/07/05 05:34:55;;;;;;;;;;;15.80;99.90;;;;;;5014009;28;20046;-55
2022/07/05 05:37:22;;;;;;;6.80;5.43;;;15.80;99.90;;;;;;5014381;28;20373;-56
2022/07/05 05:39:49;;;;;;;5.07;4.35;;;15.80;99.90;;;;;;5014725;28;20048;-57
2022/07/05 05:42:16;;;;;;;;;;;15.80;99.90;;;;;;5015103;28;20041;-55
2022/07/05 05:44:42;;;;;;;5.03;4.45;;;15.90;99.90;;;;;;5013522;28;20573;-53
2022/07/05 05:47:09;;;;;;;;;;;15.90;99.90;;;;;;5013986;28;20042;-53
2022/07/05 05:49:42;;;;;;;6.30;5.18;;;16.00;99.90;;;;;;5013235;28;20020;-54
2022/07/05 05:52:10;;;;;;;6.18;5.22;;;16.00;99.90;;;;;;5014769;28;20041;-55
2022/07/05 05:54:36;;;;;;;;;;;16.10;99.90;;;;;;5014864;28;20702;-56
2022/07/05 05:57:03;;;;;;;5.47;4.82;;;16.10;99.90;;;;;;5013525;28;19932;-54
2022/07/05 05:59:30;;;;;;;9.25;5.95;;;16.20;99.90;;;;;;5015218;28;20145;-54
2022/07/05 06:01:57;;;;;;;7.53;5.68;;;16.20;99.90;;;;;;5013918;28;20106;-55
2022/07/05 06:04:24;;;;;;;6.63;5.15;;;16.30;99.90;;;;;;5013700;28;20049;-54
2022/07/05 06:06:51;;;;;;;;;;;16.30;99.90;;;;;;5015793;28;20205;-51
2022/07/05 06:09:18;;;;;;;10.27;6.03;;;16.40;99.90;;;;;;5013997;28;19925;-53
2022/07/05 06:11:44;;;;;;;7.05;5.30;;;16.40;99.90;;;;;;5013016;28;20037;-52
2022/07/05 06:14:11;;;;;;;;;;;16.40;99.90;;;;;;5014620;28;20048;-52
2022/07/05 06:16:38;;;;;;;4.80;4.15;;;16.50;99.90;;;;;;5014929;28;19924;-52
2022/07/05 06:19:05;;;;;;;6.05;4.45;;;16.50;99.90;;;;;;5011551;28;20750;-53
2022/07/05 06:21:32;;;;;;;5.22;4.10;;;16.60;99.90;;;;;;5013676;28;20076;-50
2022/07/05 06:23:59;;;;;;;5.15;4.20;;;16.70;99.90;;;;;;5014683;28;20046;-52
2022/07/05 06:26:25;;;;;;;;;;;16.90;99.90;;;;;;5014472;28;20045;-52
2022/07/05 06:28:52;;;;;;;5.32;3.75;;;17.00;99.90;;;;;;5014336;28;20584;-54
2022/07/05 06:31:19;;;;;;;;;;;17.10;99.90;;;;;;5014712;28;20046;-54
2022/07/05 06:33:46;;;;;;;12.25;3.92;;;17.20;99.90;;;;;;5014252;28;19925;-54
2022/07/05 06:36:12;;;;;;;6.15;4.15;;;17.20;99.90;;;;;;5010403;28;20770;-54
2022/07/05 06:38:39;;;;;;;6.90;4.28;;;17.40;99.90;;;;;;5012617;28;20274;-54
2022/07/05 06:41:06;;;;;;;5.65;4.05;;;17.40;99.90;;;;;;5014556;28;20397;-53
2022/07/05 06:43:33;;;;;;;4.82;3.50;;;17.50;99.90;;;;;;5013743;28;20052;-52
2022/07/05 06:46:07;;;;;;;6.03;4.38;;;17.50;99.90;;;;;;5014400;28;20046;-57
2022/07/05 06:48:34;;;;;;;6.78;4.22;;;17.60;99.90;;;;;;5012456;28;20065;-57
2022/07/05 06:51:01;;;;;;;7.45;3.85;;;17.70;99.90;;;;;;5013094;28;20620;-57
2022/07/05 06:53:27;;;;;;;10.32;4.75;;;17.70;99.90;;;;;;5013417;28;20050;-53
2022/07/05 06:55:54;;;;;;;8.23;5.15;;;17.80;99.90;;;;;;5013834;28;20041;-51
2022/07/05 06:58:23;;;;;;;5.53;4.30;;;17.80;99.90;;;;;;5013448;28;20056;-55
2022/07/05 07:00:50;;;;;;;15.85;4.90;;;17.90;99.90;;;;;;5014516;28;20056;-51
2022/07/05 07:03:38;;;;;;;8.00;4.78;;;18.00;99.90;;;;;;5012969;28;20050;-52
2022/07/05 07:06:24;;;;;;;6.22;5.13;;;18.10;99.90;;;;;;5014379;28;20045;-51
2022/07/05 07:11:36;;;;;;;7.85;4.95;;;18.30;99.90;;;;;;5014381;28;20851;-51
2022/07/05 07:14:02;;;;;;;8.55;4.85;;;18.40;99.90;;;;;;5012461;28;20050;-50
2022/07/05 07:16:29;;;;;;;10.07;4.25;;;18.40;99.90;;;;;;5014003;28;20042;-52
2022/07/05 07:18:56;;;;;;;5.65;4.50;;;18.50;99.90;;;;;;5012147;28;20052;-48
2022/07/05 07:21:38;;;;;;;7.65;4.32;;;18.60;99.90;;;;;;5014031;28;20088;-50
2022/07/05 07:24:06;;;;;;;4.63;3.90;;;18.60;99.90;;;;;;5013836;28;20136;-52
2022/07/05 07:27:02;;;;;;;9.95;4.47;;;18.60;99.90;;;;;;5013975;28;20049;-52
2022/07/05 07:29:20;;;;;;;5.63;4.10;;;18.60;99.90;;;;;;4993871;28;20061;-48
2022/07/05 07:31:46;;;;;;;4.80;4.22;;;18.70;99.90;;;;;;4994909;28;20639;-48
2022/07/05 07:34:14;;;;;;;5.68;4.82;;;18.70;99.90;;;;;;5012782;28;20068;-48
2022/07/05 07:36:41;;;;;;;10.80;5.15;;;18.80;99.90;;;;;;5000714;28;20049;-50
2022/07/05 07:39:08;;;;;;;8.38;4.63;;;19.00;99.90;;;;;;5011352;28;20323;-52
2022/07/05 07:41:35;;;;;;;6.45;4.28;;;19.20;99.90;;;;;;5000315;28;20049;-52
2022/07/05 07:44:02;;;;;;;9.60;3.97;;;19.30;99.90;;;;;;5016085;28;20285;-55
2022/07/05 07:46:29;;;;;;;6.85;3.80;;;19.50;99.90;;;;;;5017263;28;20684;-55
2022/07/05 07:48:56;;;;;;;4.68;3.85;;;19.60;99.90;;;;;;5016258;28;20088;-55
2022/07/05 07:51:24;;;;;;;8.25;4.47;;;19.70;99.90;;;;;;5017336;28;20053;-49
2022/07/05 07:53:51;;;;;;;4.57;3.42;;;19.70;99.90;;;;;;5014764;28;20041;-58
2022/07/05 07:56:18;;;;;;;5.80;2.80;;;19.70;99.90;;;;;;5016806;28;20120;-49
2022/07/05 07:58:46;;;;;;;7.72;3.45;;;19.70;99.90;;;;;;5016457;28;20223;-51
2022/07/05 08:01:13;;;;;;;7.43;3.63;;;19.80;99.90;;;;;;5016624;28;20140;-54
2022/07/05 08:03:41;;;;;;;7.25;3.45;;;19.80;99.90;;;;;;5016446;28;20045;-48
2022/07/05 08:06:10;;;;;;;8.05;3.58;;;19.80;99.90;;;;;;5016372;28;20076;-50
2022/07/05 08:08:38;;;;;;;8.75;3.28;;;19.80;99.90;;;;;;5017194;28;20124;-51
2022/07/05 08:11:06;;;;;;;9.57;4.20;;;19.80;99.90;;;;;;5016367;28;20069;-48
2022/07/05 08:13:32;;;;;;;4.32;3.50;;;19.80;99.90;;;;;;5016664;28;20041;-53
2022/07/05 08:15:59;;;;;;;6.85;3.22;;;19.80;99.90;;;;;;5016036;28;20061;-54
2022/07/05 08:23:59;;;;;;;7.47;3.13;;;19.80;99.90;;;;;;5017006;28;20049;-56
2022/07/05 08:26:27;;;;;;;7.72;2.90;;;19.90;99.90;;;;;;5014585;28;20049;-55
2022/07/05 08:28:54;;;;;;;5.82;3.28;;;20.00;99.90;;;;;;5015576;28;20119;-54
2022/07/05 08:31:40;;;;;;;4.35;3.38;;;20.10;99.90;;;;;;5016449;28;20037;-49
2022/07/05 08:34:07;;;;;;;9.82;3.30;;;20.10;99.90;;;;;;5015744;28;20276;-50
2022/07/05 08:36:34;;;;;;;5.65;4.05;;;20.20;99.90;;;;;;5016575;28;20053;-48
2022/07/05 08:39:00;;;;;;;4.45;3.17;;;20.30;99.90;;;;;;5011724;28;20038;-49
2022/07/05 08:41:29;;;;;;;5.82;3.60;;;20.40;99.90;;;;;;5016101;28;20034;-55
2022/07/05 08:43:57;;;;;;;8.10;3.58;;;20.50;99.90;;;;;;5014672;28;20046;-49
2022/07/05 08:46:25;;;;;;;5.40;3.47;;;20.70;99.90;;;;;;5016257;28;20049;-55
2022/07/05 08:48:55;;;;;;;4.15;2.75;;;20.80;99.90;;;;;;5016077;28;20088;-52
2022/07/05 08:51:23;;;;;;;5.40;3.25;;;20.90;99.90;;;;;;5015700;28;20045;-55
2022/07/05 08:53:52;;;;;;;4.28;3.30;;;21.00;99.90;;;;;;5016045;28;20045;-54
2022/07/05 08:56:19;;;;;;;5.13;2.80;;;21.10;99.90;;;;;;5016142;28;20052;-51
2022/07/05 08:59:05;;;;;;;5.97;3.25;;;21.10;99.90;;;;;;5016814;28;20045;-54
2022/07/05 09:01:34;;;;;;;5.03;3.03;;;21.20;99.90;;;;;;5014922;28;20052;-54
2022/07/05 09:04:05;;;;;;;4.15;2.83;;;21.20;99.90;;;;;;5015857;28;20045;-51
2022/07/05 09:06:38;;;;;;;7.13;3.33;;;21.20;99.90;;;;;;5015898;28;20416;-50
2022/07/05 09:09:06;;;;;;;6.70;3.10;;;21.30;99.90;;;;;;5013701;28;20053;-51
2022/07/05 09:11:36;;;;;;;39.67;7.03;;;21.30;99.90;;;;;;5015616;28;20044;-54
2022/07/05 09:14:05;;;;;;;5.18;3.80;;;21.30;99.90;;;;;;5013978;28;20812;-49
2022/07/05 09:16:53;;;;;;;5.25;3.13;;;21.30;99.90;;;;;;5015497;28;20104;-52
2022/07/05 09:19:20;;;;;;;4.93;2.95;;;21.30;99.90;;;;;;5015085;28;20037;-51
2022/07/05 09:21:47;;;;;;;9.30;3.10;;;21.40;99.90;;;;;;5015598;28;20522;-52
2022/07/05 09:24:14;;;;;;;5.00;3.50;;;21.50;99.90;;;;;;5013606;28;20052;-51
2022/07/05 09:26:48;;;;;;;6.05;3.53;;;21.70;99.90;;;;;;5013747;28;20060;-51
2022/07/05 09:29:18;;;;;;;8.00;3.33;;;21.80;99.90;;;;;;5014588;28;20092;-50
2022/07/05 09:32:05;;;;;;;4.38;3.08;;;21.90;99.90;;;;;;5014958;28;20042;-51
2022/07/05 09:34:34;;;;;;;6.00;3.33;;;22.20;99.90;;;;;;5012932;28;20576;-52
2022/07/05 09:37:03;;;;;;;4.10;3.13;;;22.50;99.90;;;;;;5015556;28;20040;-51
2022/07/05 09:39:29;;;;;;;8.98;3.35;;;22.70;99.90;;;;;;5009333;28;20034;-52
2022/07/05 09:42:22;;;;;;;3.92;2.53;;;22.80;99.90;;;;;;5013038;28;20143;-54
2022/07/05 09:44:54;;;;;;;6.30;3.00;;;23.10;99.90;;;;;;5014944;28;20049;-53
2022/07/05 09:47:27;;;;;;;7.45;3.10;;;23.40;99.90;;;;;;5013824;28;20060;-53
2022/07/05 09:49:55;;;;;;;6.28;3.25;;;23.60;99.90;;;;;;5014406;28;20049;-54
2022/07/05 09:52:45;;;;;;;2.78;2.42;;;23.70;99.90;;;;;;5014645;28;20041;-55
2022/07/05 09:55:20;;;;;;;5.00;2.45;;;23.60;99.90;;;;;;5012606;28;20053;-57
2022/07/05 09:57:47;;;;;;;3.78;1.90;;;23.60;99.90;;;;;;5014803;28;20069;-53
2022/07/05 10:00:18;;;;;;;3.55;2.60;;;23.70;99.90;;;;;;5013119;28;20648;-55
2022/07/05 10:02:55;;;;;;;5.68;2.38;;;23.90;99.90;;;;;;5013793;28;20048;-55
2022/07/05 10:05:23;;;;;;;3.37;2.20;;;24.00;99.90;;;;;;5014164;28;20156;-52
2022/07/05 10:07:55;;;;;;;6.10;2.25;;;24.20;99.90;;;;;;5012655;28;21124;-54
2022/07/05 10:10:24;;;;;;;3.00;2.03;;;24.30;99.90;;;;;;5015004;28;20041;-52
2022/07/05 10:12:53;;;;;;;3.72;2.00;;;24.50;99.90;;;;;;5013120;28;20049;-55
2022/07/05 10:15:25;;;;;;;4.15;2.63;;;24.60;99.90;;;;;;5013115;28;20045;-53
2022/07/05 10:18:17;;;;;;;3.83;1.90;;;24.70;99.00;;;;;;5014919;28;20052;-55
2022/07/05 10:20:45;;;;;;;2.08;1.90;;;24.70;99.90;;;;;;5014355;28;20617;-54
2022/07/05 10:23:18;;;;;;;3.92;2.13;;;24.60;96.40;;;;;;5013374;28;20136;-57
2022/07/05 10:25:49;;;;;;;3.22;1.60;;;24.60;97.10;;;;;;5014314;28;20073;-52
2022/07/05 10:28:18;;;;;;;3.85;2.00;;;24.70;97.40;;;;;;5014222;28;20878;-52
2022/07/05 10:30:49;;;;;;;2.30;2.10;;;24.60;99.90;;;;;;5014168;28;20685;-54
2022/07/05 10:33:26;;;;;;;2.10;1.90;;;24.40;98.80;;;;;;5014510;28;20587;-53
2022/07/05 10:35:53;;;;;;;;;;;24.20;99.90;;;;;;5012588;28;20053;-53
2022/07/05 10:38:20;;;;;;;2.63;1.70;;;24.10;99.90;;;;;;5013493;28;20044;-55
2022/07/05 10:40:52;;;;;;;2.42;1.73;;;23.90;99.90;;;;;;5012134;28;20471;-53
2022/07/05 10:43:22;;;;;;;4.60;1.92;;;23.80;99.90;;;;;;5013716;28;20049;-53
2022/07/05 10:45:51;;;;;;;4.05;2.38;;;23.70;99.90;;;;;;5013245;28;20049;-53
2022/07/05 10:48:22;;;;;;;3.03;2.08;;;23.60;99.90;;;;;;5012727;28;20049;-53
2022/07/05 10:50:52;;;;;;;2.22;1.95;;;23.70;99.90;;;;;;5014465;28;20049;-52
2022/07/05 10:53:27;;;;;;;2.47;2.25;;;23.70;99.90;;;;;;5013443;28;20458;-51
2022/07/05 10:56:18;;;;;;;4.10;2.00;;;23.80;99.90;;;;;;5013063;28;20777;-52
2022/07/05 10:58:46;;;;;;;4.03;2.45;;;24.00;99.90;;;;;;5014059;28;20041;-52
2022/07/05 11:01:19;;;;;;;4.80;2.28;;;24.20;99.90;;;;;;5014285;28;20358;-53
2022/07/05 11:04:01;;;;;;;7.13;2.35;;;24.40;99.90;;;;;;5011757;28;20049;-52
2022/07/05 11:06:38;;;;;;;7.10;2.85;;;24.60;99.90;;;;;;5016982;28;20063;-53
2022/07/05 11:09:08;;;;;;;7.20;2.38;;;24.90;99.90;;;;;;5017755;28;20057;-52
2022/07/05 11:11:43;;;;;;;4.60;2.20;;;25.00;99.90;;;;;;5018117;28;20056;-55
2022/07/05 11:14:31;;;;;;;2.17;1.90;;;25.10;99.90;;;;;;5017448;28;20134;-53
2022/07/05 11:17:15;;;;;;;4.78;2.63;;;25.00;99.90;;;;;;5016671;28;20103;-55
2022/07/05 11:20:06;;;;;;;4.35;2.50;;;25.00;99.90;;;;;;5017340;28;20037;-52
2022/07/05 11:22:38;;;;;;;6.22;2.58;;;24.80;99.90;;;;;;5017642;28;20462;-54
2022/07/05 11:25:06;;;;;;;5.40;2.10;;;24.60;99.90;;;;;;5016385;28;20057;-54
2022/07/05 11:27:33;;;;;;;3.58;1.70;;;24.40;99.90;;;;;;5017438;28;20059;-54
2022/07/05 11:30:00;;;;;;;4.13;2.13;;;24.30;99.90;;;;;;5017806;28;20055;-53
2022/07/05 11:32:30;;;;;;;2.00;1.90;;;24.20;99.90;;;;;;5017082;28;20520;-56
2022/07/05 11:35:13;;;;;;;3.67;1.90;;;24.10;99.90;;;;;;5017973;28;20536;-54
2022/07/05 11:38:09;;;;;;;6.93;2.53;;;24.00;99.90;;;;;;5017067;28;20045;-55
2022/07/05 11:40:55;;;;;;;5.18;2.45;;;24.00;99.90;;;;;;5001034;28;20111;-53
2022/07/05 11:43:30;;;;;;;6.00;2.30;;;24.00;99.90;;;;;;5015621;28;20046;-53
2022/07/05 11:45:59;;;;;;;4.35;1.88;;;24.40;99.90;;;;;;5017598;28;20136;-54
2022/07/05 11:48:27;;;;;;;4.78;2.20;;;24.70;99.90;;;;;;5016343;28;20084;-54
2022/07/05 11:50:54;;;;;;;3.65;1.95;;;24.70;97.90;;;;;;5017378;28;20041;-55
2022/07/05 11:53:26;;;;;;;2.42;1.90;;;24.60;99.60;;;;;;5016222;28;20048;-55
2022/07/05 11:56:13;;;;;;;1.77;1.67;;;24.60;99.70;;;;;;5016586;28;20072;-54
2022/07/05 11:58:40;;;;;;;2.13;1.77;;;24.60;99.90;;;;;;5016746;28;20045;-59
2022/07/05 12:01:07;;;;;;;5.50;2.05;;;24.50;99.90;;;;;;4998511;28;20057;-51
2022/07/05 12:03:35;;;;;;;11.32;2.17;;;24.40;99.90;;;;;;5001027;28;20049;-54
2022/07/05 12:06:15;;;;;;;7.53;2.00;;;24.20;99.90;;;;;;5017392;28;20053;-54
2022/07/05 12:08:42;;;;;;;10.98;2.10;;;24.10;99.90;;;;;;5017114;28;20119;-51
2022/07/05 12:13:57;;;;;;;2.60;1.60;;;24.30;99.90;;;;;;5017301;28;20063;-54
2022/07/05 12:16:27;;;;;;;6.32;1.95;;;24.40;99.90;;;;;;5015661;28;20057;-53
2022/07/05 12:18:56;;;;;;;2.50;1.98;;;24.30;99.90;;;;;;5015699;28;20041;-54
2022/07/05 12:21:24;;;;;;;4.40;1.80;;;24.30;99.90;;;;;;5016741;28;20041;-57
2022/07/05 12:23:51;;;;;;;6.35;2.17;;;24.30;99.90;;;;;;5017513;28;20134;-52
2022/07/05 12:26:20;;;;;;;2.67;1.83;;;24.20;99.90;;;;;;5015746;28;20053;-56
2022/07/05 12:28:48;;;;;;;2.53;2.10;;;24.10;99.90;;;;;;5015691;28;20053;-57
2022/07/05 12:31:22;;;;;;;4.07;2.38;;;24.10;99.90;;;;;;5016873;28;20991;-55
2022/07/05 12:33:51;;;;;;;1.90;1.80;;;24.30;99.90;;;;;;4998074;28;20219;-56
2022/07/05 12:36:23;;;;;;;3.20;1.85;;;24.40;99.90;;;;;;5016922;28;20045;-53
2022/07/05 12:38:50;;;;;;;4.65;2.25;;;24.50;99.90;;;;;;5016237;28;20511;-55
2022/07/05 12:41:23;;;;;;;1.90;1.50;;;24.60;99.90;;;;;;5015520;28;20056;-55
2022/07/05 12:43:55;;;;;;;2.90;1.55;;;24.80;97.90;;;;;;5012089;28;20661;-57
2022/07/05 12:46:42;;;;;;;2.85;1.70;;;25.20;99.90;;;;;;5017097;28;20148;-56
2022/07/05 12:49:10;;;;;;;4.55;1.60;;;25.60;92.10;;;;;;5015622;28;20037;-57
2022/07/05 12:51:40;;;;;;;2.97;1.75;;;25.80;92.50;;;;;;5016512;28;20523;-61
2022/07/05 13:00:10;;;;;;;2.38;1.63;;;26.40;72.60;;;;;;5036137;28;20048;-55
2022/07/05 13:02:39;;;;;;;2.35;1.60;;;26.60;77.60;;;;;;5035898;28;20502;-56
2022/07/05 13:05:19;;;;;;;4.68;1.48;;;26.80;79.60;;;;;;5035963;28;20117;-56
2022/07/05 13:07:51;;;;;;;3.70;1.67;;;27.00;77.70;;;;;;5034266;28;20045;-56
2022/07/05 13:10:25;;;;;;;1.67;1.38;;;27.10;70.50;;;;;;5036253;28;20572;-56
2022/07/05 13:12:52;;;;;;;3.55;1.50;;;27.30;65.60;;;;;;5035754;28;20051;-55
2022/07/05 13:15:19;;;;;;;2.50;1.23;;;27.50;59.90;;;;;;5036469;28;20037;-55
2022/07/05 13:17:46;;;;;;;2.45;1.23;;;27.60;58.20;;;;;;5025729;28;20046;-57
2022/07/05 13:20:17;;;;;;;2.65;1.75;;;27.80;59.90;;;;;;5015749;28;20045;-55
2022/07/05 13:22:44;;;;;;;8.95;1.58;;;28.00;54.10;;;;;;5016128;28;20149;-54